Relevés horaires Beauvechain (Belgique)


Relevés horaires à Beauvechain - Mardi 23 Juin 2020
Heure UTC1 Température [°C] Vent [km/h] Hum. [%] Pres.4 [hPa] Visi. [Km] Nébu. [octa] Préc.5 [mm] Cond.
2m. Res. Ros. Dir.2 Vit. Moy. Raf.3
23:00 19.8 19.8 12.2 NNO 0.0 -- 0.0 62 1022.7(-0.1/3h) 20 -- -- --
22:00 19.7 19.7 12.5 NNO 0.0 -- 0.0 63 1023.1(0.2/3h) 20 -- -- --
21:00 20.9 20.9 12.3 NNO 0.0 -- 0.0 58 1023(0.0/3h) 20 -- -- --
20:00 21.4 21.4 12.2 NNO 0.0 -- 0.0 56 1022.8(-0.2/3h) 20 -- -- --
19:00 22.6 22.6 13.0 NNO 0.0 -- 0.0 55 1022.7(-0.7/3h) 20 -- -- --
18:00 24.7 24.7 12.2 NNO 0.0 -- 0.0 46 1022.7(-1.0/3h) 20 -- -- --
17:00 25.6 25.6 13.4 NNO 0.0 -- 0.0 47 1023(-1.2/3h) 19 -- -- --
16:00 25.5 25.5 11.6 NNO 0.0 -- 0.0 42 1023.2(-1.2/3h) 20 -- -- --
15:00 25.7 25.7 13.2 NNO 1.9 -- 0.0 46 1023.7(-1.2/3h) 20 1/8 -- --
14:00 24.9 24.9 13.4 NNO 1.9 -- 0.0 49 1024.2(-1.0/3h) 20 1/8 -- --
13:00 24.6 24.6 12.0 NNO 1.9 -- 0.0 45 1024.5(-0.6/3h) 20 1/8 -- --
12:00 24.7 24.7 13.1 NNO 1.9 -- 0.0 48 1025(-0.3/3h) 20 1/8 -- --
11:00 23.3 23.3 11.4 NNO 1.9 -- 0.0 47 1025.4(-0.1/3h) 20 1/8 -- --
10:00 22.4 22.4 12.3 NNO 1.9 -- 0.0 53 1025.4(0.0/3h) 20 1/8 -- --
09:00 21.9 21.9 11.6 NNO 1.9 -- 5.6 52 1025.5(0.1/3h) 20 1/8 -- --
08:00 21.1 21.1 12.8 NNO 1.9 -- 5.6 59 1025.7(0.5/3h) 20 1/8 -- --
07:00 19.6 19.6 12.8 NNO 1.9 -- 3.7 65 1025.5(0.3/3h) 20 0/8 -- --
06:00 17.2 17.2 14.1 NNO 1.9 -- 1.9 82 1025.5(0.2/3h) 18 -- -- --
05:00 14.4 14.4 11.6 NNO 1.9 -- 0.0 83 1025.5(-0.2/3h) 17 -- -- --
04:00 15.0 15.0 10.7 NNO 0.0 -- 0.0 75 1025.5(-0.3/3h) 20 -- -- --
03:00 14.1 14.1 11.0 NNO 1.9 -- 1.9 82 1025.5(-0.2/3h) 20 -- -- --
02:00 15.0 15.0 10.7 NNO 1.9 -- 0.0 75 1025.7(0.0/3h) 20 -- -- --
01:00 15.5 15.5 10.9 NNO 1.9 -- 1.9 74 1025.7(0.2/3h) 20 -- -- --
00:00 15.8 15.8 11.0 NNO 1.9 -- 3.7 73 1025.7(0.2/3h) 20 -- -- --

1 Coordinated Universal Time. Actuellement il est 19:00 locale et 17:00 UTC.

2 Le vent souffle depuis la direction indiquée vers la direction oposée.

3 Les rafales max. sont disponible 40 min après l'heure du relevé.

4 Pour les stations d'altitude (plus de 600m) le géopotentiel du niveau le plus proche de la pression obligatoire est indiqué.

5 Les stations disposant d'un diffuseur peuvent indiquer "trace". Cela signifie que des précipitations ont touchés le sol mais que la quantité est inférieure à 0.1 mm.

Récapitulatif de la journée
Température [°C] Vent [km/h] Ensoleillement4 [h] Precipitations totale5 [mm] Pression [Hpa]
Min1 Max.2 Moy.3 Max. Min Max.
12.6 25.7 0 5.6 0 h 0 min 0 1022.7 1025.7

1 Température minimale relevée entre 18:00 UTC la veille et 18:00 UTC le jour donné.

2 Température maximale relevée entre 06:00 UTC le jour donné et 06:00 UTC le lendemain.

3 Vent moyen de la journée basé sur les relevés horaires.

4 Ensoleillement en heures relevé entre 06:00 UTC la veille et 06:00 UTC le jour donné.

5 Précipitations totales tombées entre 06:00 UTC la jour donné et 06:00 UTC le lendemain.

Graphiques horaires